Detall de PIREP

Printer-friendly versionPDF version

[2017/10/07 09:45:00]
Flight IATA:CT3110
Pilot Number:012
Company ICAO:CAT
Aircraft Type:A320/E
PAX:150
Departing Airport: LEBL
Destination Airport: LEPA
Alternate Airport:LEBL
Online: VATSIM
Route:LARPA B31 TOLSO
Flight Level:F170
No Slew and time accel
No pause
Crash detect
Detect pilot in Cockpit between each 30 and 45 minutes
09:45 Zero fuel Weight: 120800 Lbs, Fuel Weight: 11214 Lbs
09:45 VATSIM:LEBL 070930Z 07008KT 030V100 9999 FEW040 20/08 Q1023 NOSIG
09:45 VATSIM:LEPA 070930Z 06017KT 9999 FEW035 22/12 Q1022 NOSIG
09:46 Parking Brakes off
09:50 Take-off
09:50 Take off Weight: 131325 Lbs
09:50 Wind: 060º @ 008 Knots Heading: 065º
09:50 POS N41º 17´ 18´´ E002º 05´ 32´´
09:50 Flaps:3 at 172 Knots
09:50 Gear Up: 173 Knots
09:51 Flaps:2 at 190 Knots
09:51 Flaps:1 at 199 Knots
09:51 Flaps:0 at 204 Knots
09:57 TOC
09:57 Fuel Weight: 8571 Lb
10:05 Wind:344º@016 Knots Heading: 144º Ground Speed: 406 Knots Altitude 17293 ft
10:07 TOD
10:07 Fuel Weight: 7047 Lb
10:19 Flaps:1 at 203 Knots
10:20 Wind:015º@017 Knots Heading: 091º Ground Speed: 196 Knots Altitude 2637 ft
10:20 Flaps:3 at 182 Knots
10:21 Flaps:4 at 178 Knots
10:21 Gear Down: 160 Knots
10:21 Flaps:5 at 157 Knots
10:24 TouchDown:Rate -267 ft/min Speed: 131 Knots
10:24 VATSIM:LEPA 071000Z 05014KT 9999 FEW035 22/12 Q1022 NOSIG
10:24 Land
10:24 Wind:059º@016 Knots
10:24 Heading: 058º
10:24 Flight Duration: 00:34
10:24 Landing Weight: 126504 Lbs
10:24 POS N39º 33´ 13´´ E002º 43´ 29´´
10:26 Parking brakes on
10:26 Block to Block Duration: 00:40
10:26 Final Fuel: 5559 Lbls
10:26 Spent Fuel: 5654 Lbls
10:26 Flight Length: 169 NM
10:26 TOD Land Length: 68 NM

Exportar CSV

Powered by Drupal - Modified by Danger4k